sensor_id;sensor_type;location;lat;lon;timestamp;P1;durP1;ratioP1;P2;durP2;ratioP2
44985;SDS011;30721;49.380;7.736;2023-10-19T00:00:55;10.13;;;8.02;;
44985;SDS011;30721;49.380;7.736;2023-10-19T00:03:21;10.55;;;7.93;;
44985;SDS011;30721;49.380;7.736;2023-10-19T00:05:49;10.85;;;7.70;;
44985;SDS011;30721;49.380;7.736;2023-10-19T00:08:15;9.77;;;7.45;;
44985;SDS011;30721;49.380;7.736;2023-10-19T00:10:46;9.10;;;7.40;;
44985;SDS011;30721;49.380;7.736;2023-10-19T00:13:32;11.45;;;7.78;;
44985;SDS011;30721;49.380;7.736;2023-10-19T00:16:01;9.32;;;8.15;;
44985;SDS011;30721;49.380;7.736;2023-10-19T00:18:32;10.88;;;8.35;;
44985;SDS011;30721;49.380;7.736;2023-10-19T00:20:59;10.20;;;7.80;;
44985;SDS011;30721;49.380;7.736;2023-10-19T00:23:36;12.30;;;9.30;;
44985;SDS011;30721;49.380;7.736;2023-10-19T00:26:02;10.10;;;7.78;;
44985;SDS011;30721;49.380;7.736;2023-10-19T00:28:45;11.00;;;8.35;;
44985;SDS011;30721;49.380;7.736;2023-10-19T00:31:13;9.20;;;7.82;;
44985;SDS011;30721;49.380;7.736;2023-10-19T00:33:38;9.98;;;8.52;;
44985;SDS011;30721;49.380;7.736;2023-10-19T00:36:05;9.70;;;7.68;;
44985;SDS011;30721;49.380;7.736;2023-10-19T00:38:34;11.77;;;8.85;;
44985;SDS011;30721;49.380;7.736;2023-10-19T00:41:00;10.80;;;7.68;;
44985;SDS011;30721;49.380;7.736;2023-10-19T00:43:32;8.70;;;7.65;;
44985;SDS011;30721;49.380;7.736;2023-10-19T00:46:03;10.82;;;7.80;;
44985;SDS011;30721;49.380;7.736;2023-10-19T00:48:34;9.90;;;8.13;;
44985;SDS011;30721;49.380;7.736;2023-10-19T00:51:00;9.65;;;7.30;;
44985;SDS011;30721;49.380;7.736;2023-10-19T00:53:39;10.23;;;8.23;;
44985;SDS011;30721;49.380;7.736;2023-10-19T00:56:05;9.07;;;6.90;;
44985;SDS011;30721;49.380;7.736;2023-10-19T00:58:34;10.32;;;7.65;;
44985;SDS011;30721;49.380;7.736;2023-10-19T01:01:02;10.68;;;7.53;;
44985;SDS011;30721;49.380;7.736;2023-10-19T01:03:31;9.13;;;7.15;;
44985;SDS011;30721;49.380;7.736;2023-10-19T01:06:02;9.57;;;7.40;;
44985;SDS011;30721;49.380;7.736;2023-10-19T01:08:34;9.00;;;6.70;;
44985;SDS011;30721;49.380;7.736;2023-10-19T01:11:07;9.02;;;6.57;;
44985;SDS011;30721;49.380;7.736;2023-10-19T01:13:40;8.55;;;6.70;;
44985;SDS011;30721;49.380;7.736;2023-10-19T01:16:16;10.77;;;7.97;;
44985;SDS011;30721;49.380;7.736;2023-10-19T01:18:48;11.23;;;7.78;;
44985;SDS011;30721;49.380;7.736;2023-10-19T01:21:18;9.10;;;6.55;;
44985;SDS011;30721;49.380;7.736;2023-10-19T01:23:46;7.85;;;6.93;;
44985;SDS011;30721;49.380;7.736;2023-10-19T01:26:13;10.23;;;7.55;;
44985;SDS011;30721;49.380;7.736;2023-10-19T01:28:43;9.73;;;6.75;;
44985;SDS011;30721;49.380;7.736;2023-10-19T01:31:13;8.45;;;6.80;;
44985;SDS011;30721;49.380;7.736;2023-10-19T01:33:59;8.10;;;6.80;;
44985;SDS011;30721;49.380;7.736;2023-10-19T01:36:26;8.05;;;7.22;;
44985;SDS011;30721;49.380;7.736;2023-10-19T01:38:52;8.25;;;7.00;;
44985;SDS011;30721;49.380;7.736;2023-10-19T01:41:19;8.25;;;7.13;;
44985;SDS011;30721;49.380;7.736;2023-10-19T01:43:46;10.00;;;7.18;;
44985;SDS011;30721;49.380;7.736;2023-10-19T01:46:18;8.05;;;7.07;;
44985;SDS011;30721;49.380;7.736;2023-10-19T01:48:47;7.90;;;7.10;;
44985;SDS011;30721;49.380;7.736;2023-10-19T01:51:15;8.63;;;7.40;;
44985;SDS011;30721;49.380;7.736;2023-10-19T01:53:40;9.48;;;7.00;;
44985;SDS011;30721;49.380;7.736;2023-10-19T01:56:12;8.88;;;7.00;;
44985;SDS011;30721;49.380;7.736;2023-10-19T01:58:40;9.32;;;7.05;;
44985;SDS011;30721;49.380;7.736;2023-10-19T02:01:11;9.68;;;7.60;;
44985;SDS011;30721;49.380;7.736;2023-10-19T02:03:41;8.52;;;6.15;;
44985;SDS011;30721;49.380;7.736;2023-10-19T02:06:07;8.20;;;7.32;;
44985;SDS011;30721;49.380;7.736;2023-10-19T02:08:48;16.20;;;6.22;;
44985;SDS011;30721;49.380;7.736;2023-10-19T02:11:20;6.95;;;5.97;;
44985;SDS011;30721;49.380;7.736;2023-10-19T02:13:47;8.13;;;6.15;;
44985;SDS011;30721;49.380;7.736;2023-10-19T02:16:18;7.82;;;6.93;;
44985;SDS011;30721;49.380;7.736;2023-10-19T02:18:50;8.77;;;6.93;;
44985;SDS011;30721;49.380;7.736;2023-10-19T02:21:16;9.38;;;6.80;;
44985;SDS011;30721;49.380;7.736;2023-10-19T02:23:50;9.82;;;6.97;;
44985;SDS011;30721;49.380;7.736;2023-10-19T02:26:19;7.63;;;6.35;;
44985;SDS011;30721;49.380;7.736;2023-10-19T02:28:46;8.38;;;6.43;;
44985;SDS011;30721;49.380;7.736;2023-10-19T02:31:22;10.10;;;7.32;;
44985;SDS011;30721;49.380;7.736;2023-10-19T02:33:54;7.65;;;6.00;;
44985;SDS011;30721;49.380;7.736;2023-10-19T02:36:29;8.35;;;6.63;;
44985;SDS011;30721;49.380;7.736;2023-10-19T02:38:56;10.02;;;6.80;;
44985;SDS011;30721;49.380;7.736;2023-10-19T02:41:25;6.80;;;5.63;;
44985;SDS011;30721;49.380;7.736;2023-10-19T02:43:55;8.48;;;5.78;;
44985;SDS011;30721;49.380;7.736;2023-10-19T02:46:30;9.32;;;6.63;;
44985;SDS011;30721;49.380;7.736;2023-10-19T02:49:05;9.02;;;7.20;;
44985;SDS011;30721;49.380;7.736;2023-10-19T02:51:39;9.98;;;6.75;;
44985;SDS011;30721;49.380;7.736;2023-10-19T02:54:06;8.18;;;6.25;;
44985;SDS011;30721;49.380;7.736;2023-10-19T02:56:32;7.82;;;6.35;;
44985;SDS011;30721;49.380;7.736;2023-10-19T02:59:01;8.73;;;6.85;;
44985;SDS011;30721;49.380;7.736;2023-10-19T03:01:29;8.38;;;7.10;;
44985;SDS011;30721;49.380;7.736;2023-10-19T03:03:56;8.10;;;6.88;;
44985;SDS011;30721;49.380;7.736;2023-10-19T03:06:25;8.88;;;6.20;;
44985;SDS011;30721;49.380;7.736;2023-10-19T03:08:51;7.60;;;6.03;;
44985;SDS011;30721;49.380;7.736;2023-10-19T03:11:23;8.48;;;6.45;;
44985;SDS011;30721;49.380;7.736;2023-10-19T03:13:50;7.38;;;5.63;;
44985;SDS011;30721;49.380;7.736;2023-10-19T03:16:17;8.15;;;6.00;;
44985;SDS011;30721;49.380;7.736;2023-10-19T03:18:43;8.18;;;6.32;;
44985;SDS011;30721;49.380;7.736;2023-10-19T03:21:08;8.60;;;6.15;;
44985;SDS011;30721;49.380;7.736;2023-10-19T03:23:36;7.60;;;6.07;;
44985;SDS011;30721;49.380;7.736;2023-10-19T03:26:02;6.82;;;6.07;;
44985;SDS011;30721;49.380;7.736;2023-10-19T03:28:50;9.63;;;6.20;;
44985;SDS011;30721;49.380;7.736;2023-10-19T03:31:23;7.63;;;6.47;;
44985;SDS011;30721;49.380;7.736;2023-10-19T03:33:52;6.72;;;5.75;;
44985;SDS011;30721;49.380;7.736;2023-10-19T03:36:22;8.85;;;6.05;;
44985;SDS011;30721;49.380;7.736;2023-10-19T03:38:51;8.88;;;6.28;;
44985;SDS011;30721;49.380;7.736;2023-10-19T03:41:18;8.85;;;6.80;;
44985;SDS011;30721;49.380;7.736;2023-10-19T03:43:46;8.88;;;6.82;;
44985;SDS011;30721;49.380;7.736;2023-10-19T03:46:18;8.68;;;6.10;;
44985;SDS011;30721;49.380;7.736;2023-10-19T03:49:02;7.35;;;5.88;;
44985;SDS011;30721;49.380;7.736;2023-10-19T03:51:36;6.63;;;5.75;;
44985;SDS011;30721;49.380;7.736;2023-10-19T03:54:26;9.52;;;6.68;;
44985;SDS011;30721;49.380;7.736;2023-10-19T03:56:53;9.00;;;6.78;;
44985;SDS011;30721;49.380;7.736;2023-10-19T03:59:21;8.88;;;7.13;;
44985;SDS011;30721;49.380;7.736;2023-10-19T04:01:46;8.57;;;5.93;;
44985;SDS011;30721;49.380;7.736;2023-10-19T04:04:12;10.38;;;6.95;;
44985;SDS011;30721;49.380;7.736;2023-10-19T04:06:38;7.70;;;6.55;;
44985;SDS011;30721;49.380;7.736;2023-10-19T04:09:05;7.78;;;6.63;;
44985;SDS011;30721;49.380;7.736;2023-10-19T04:11:34;8.80;;;7.13;;
44985;SDS011;30721;49.380;7.736;2023-10-19T04:14:20;7.68;;;6.63;;
44985;SDS011;30721;49.380;7.736;2023-10-19T04:16:46;6.70;;;5.90;;
44985;SDS011;30721;49.380;7.736;2023-10-19T04:19:13;9.73;;;7.05;;
44985;SDS011;30721;49.380;7.736;2023-10-19T04:21:40;7.25;;;6.03;;
44985;SDS011;30721;49.380;7.736;2023-10-19T04:24:09;10.30;;;6.32;;
44985;SDS011;30721;49.380;7.736;2023-10-19T04:26:35;7.60;;;6.70;;
44985;SDS011;30721;49.380;7.736;2023-10-19T04:29:02;6.55;;;5.32;;
44985;SDS011;30721;49.380;7.736;2023-10-19T04:31:38;8.30;;;6.28;;
44985;SDS011;30721;49.380;7.736;2023-10-19T04:34:15;9.10;;;5.53;;
44985;SDS011;30721;49.380;7.736;2023-10-19T04:36:43;8.20;;;5.93;;
44985;SDS011;30721;49.380;7.736;2023-10-19T04:39:08;8.30;;;5.88;;
44985;SDS011;30721;49.380;7.736;2023-10-19T04:41:39;6.75;;;5.65;;
44985;SDS011;30721;49.380;7.736;2023-10-19T04:44:04;7.85;;;5.88;;
44985;SDS011;30721;49.380;7.736;2023-10-19T04:46:33;8.93;;;5.85;;
44985;SDS011;30721;49.380;7.736;2023-10-19T04:48:58;7.25;;;5.43;;
44985;SDS011;30721;49.380;7.736;2023-10-19T04:51:24;7.75;;;5.53;;
44985;SDS011;30721;49.380;7.736;2023-10-19T04:53:50;6.75;;;5.18;;
44985;SDS011;30721;49.380;7.736;2023-10-19T04:56:15;5.72;;;4.97;;
44985;SDS011;30721;49.380;7.736;2023-10-19T04:58:40;8.68;;;5.45;;
44985;SDS011;30721;49.380;7.736;2023-10-19T05:01:06;6.68;;;5.22;;
44985;SDS011;30721;49.380;7.736;2023-10-19T05:03:31;6.13;;;4.72;;
44985;SDS011;30721;49.380;7.736;2023-10-19T05:05:57;6.38;;;4.70;;
44985;SDS011;30721;49.380;7.736;2023-10-19T05:08:23;6.13;;;5.05;;
44985;SDS011;30721;49.380;7.736;2023-10-19T05:10:51;5.50;;;4.57;;
44985;SDS011;30721;49.380;7.736;2023-10-19T05:13:18;6.60;;;5.18;;
44985;SDS011;30721;49.380;7.736;2023-10-19T05:15:44;8.52;;;4.97;;
44985;SDS011;30721;49.380;7.736;2023-10-19T05:18:09;6.75;;;5.63;;
44985;SDS011;30721;49.380;7.736;2023-10-19T05:20:35;7.30;;;4.75;;
44985;SDS011;30721;49.380;7.736;2023-10-19T05:23:05;7.47;;;5.15;;
44985;SDS011;30721;49.380;7.736;2023-10-19T05:25:31;7.85;;;5.30;;
44985;SDS011;30721;49.380;7.736;2023-10-19T05:27:57;6.45;;;4.78;;
44985;SDS011;30721;49.380;7.736;2023-10-19T05:30:23;6.47;;;4.88;;
44985;SDS011;30721;49.380;7.736;2023-10-19T05:32:48;8.38;;;4.95;;
44985;SDS011;30721;49.380;7.736;2023-10-19T05:35:15;9.00;;;4.90;;
44985;SDS011;30721;49.380;7.736;2023-10-19T05:37:47;5.88;;;4.78;;
44985;SDS011;30721;49.380;7.736;2023-10-19T05:40:14;6.07;;;4.40;;
44985;SDS011;30721;49.380;7.736;2023-10-19T05:42:40;6.00;;;5.40;;
44985;SDS011;30721;49.380;7.736;2023-10-19T05:45:05;5.85;;;4.75;;
44985;SDS011;30721;49.380;7.736;2023-10-19T05:47:31;6.03;;;4.80;;
44985;SDS011;30721;49.380;7.736;2023-10-19T05:49:57;9.35;;;4.82;;
44985;SDS011;30721;49.380;7.736;2023-10-19T05:52:22;5.30;;;4.80;;
44985;SDS011;30721;49.380;7.736;2023-10-19T05:57:23;6.40;;;4.75;;
44985;SDS011;30721;49.380;7.736;2023-10-19T05:59:49;5.63;;;4.13;;
44985;SDS011;30721;49.380;7.736;2023-10-19T06:02:14;6.60;;;4.78;;
44985;SDS011;30721;49.380;7.736;2023-10-19T06:04:40;5.65;;;4.35;;
44985;SDS011;30721;49.380;7.736;2023-10-19T06:07:05;6.60;;;4.93;;
44985;SDS011;30721;49.380;7.736;2023-10-19T06:09:31;5.78;;;4.28;;
44985;SDS011;30721;49.380;7.736;2023-10-19T06:11:56;7.13;;;4.28;;
44985;SDS011;30721;49.380;7.736;2023-10-19T06:14:22;6.10;;;4.53;;
44985;SDS011;30721;49.380;7.736;2023-10-19T06:16:47;6.78;;;4.80;;
44985;SDS011;30721;49.380;7.736;2023-10-19T06:19:12;5.57;;;4.15;;
44985;SDS011;30721;49.380;7.736;2023-10-19T06:21:38;5.28;;;4.22;;
44985;SDS011;30721;49.380;7.736;2023-10-19T06:24:05;4.82;;;4.05;;
44985;SDS011;30721;49.380;7.736;2023-10-19T06:26:31;9.27;;;4.13;;
44985;SDS011;30721;49.380;7.736;2023-10-19T06:28:56;4.60;;;4.10;;
44985;SDS011;30721;49.380;7.736;2023-10-19T06:31:24;5.20;;;4.35;;
44985;SDS011;30721;49.380;7.736;2023-10-19T06:33:51;6.53;;;4.28;;
44985;SDS011;30721;49.380;7.736;2023-10-19T06:36:16;6.63;;;4.22;;
44985;SDS011;30721;49.380;7.736;2023-10-19T06:38:43;6.55;;;4.45;;
44985;SDS011;30721;49.380;7.736;2023-10-19T06:41:09;6.00;;;4.43;;
44985;SDS011;30721;49.380;7.736;2023-10-19T06:43:36;4.63;;;4.10;;
44985;SDS011;30721;49.380;7.736;2023-10-19T06:46:03;5.28;;;4.13;;
44985;SDS011;30721;49.380;7.736;2023-10-19T06:48:28;8.98;;;4.50;;
44985;SDS011;30721;49.380;7.736;2023-10-19T06:50:55;5.32;;;4.05;;
44985;SDS011;30721;49.380;7.736;2023-10-19T06:53:21;6.30;;;4.40;;
44985;SDS011;30721;49.380;7.736;2023-10-19T06:55:47;5.00;;;3.95;;
44985;SDS011;30721;49.380;7.736;2023-10-19T06:58:13;6.65;;;4.47;;
44985;SDS011;30721;49.380;7.736;2023-10-19T07:00:40;5.82;;;4.40;;
44985;SDS011;30721;49.380;7.736;2023-10-19T07:03:08;6.93;;;4.13;;
44985;SDS011;30721;49.380;7.736;2023-10-19T07:05:34;5.75;;;4.40;;
44985;SDS011;30721;49.380;7.736;2023-10-19T07:07:59;5.50;;;4.03;;
44985;SDS011;30721;49.380;7.736;2023-10-19T07:10:27;5.72;;;4.35;;
44985;SDS011;30721;49.380;7.736;2023-10-19T07:12:53;9.27;;;4.30;;
44985;SDS011;30721;49.380;7.736;2023-10-19T07:15:20;6.47;;;3.83;;
44985;SDS011;30721;49.380;7.736;2023-10-19T07:17:47;4.25;;;3.50;;
44985;SDS011;30721;49.380;7.736;2023-10-19T07:20:14;6.05;;;4.13;;
44985;SDS011;30721;49.380;7.736;2023-10-19T07:23:00;6.35;;;4.47;;
44985;SDS011;30721;49.380;7.736;2023-10-19T07:25:47;6.28;;;4.38;;
44985;SDS011;30721;49.380;7.736;2023-10-19T07:28:18;7.00;;;4.78;;
44985;SDS011;30721;49.380;7.736;2023-10-19T07:30:44;6.35;;;4.28;;
44985;SDS011;30721;49.380;7.736;2023-10-19T07:33:11;6.22;;;4.55;;
44985;SDS011;30721;49.380;7.736;2023-10-19T07:35:45;8.88;;;4.38;;
44985;SDS011;30721;49.380;7.736;2023-10-19T07:38:14;5.15;;;4.70;;
44985;SDS011;30721;49.380;7.736;2023-10-19T07:40:41;6.57;;;4.20;;
44985;SDS011;30721;49.380;7.736;2023-10-19T07:43:08;5.28;;;4.22;;
44985;SDS011;30721;49.380;7.736;2023-10-19T07:45:33;5.97;;;4.28;;
44985;SDS011;30721;49.380;7.736;2023-10-19T07:47:59;7.68;;;4.63;;
44985;SDS011;30721;49.380;7.736;2023-10-19T07:50:35;6.18;;;4.20;;
44985;SDS011;30721;49.380;7.736;2023-10-19T07:53:05;6.97;;;4.28;;
44985;SDS011;30721;49.380;7.736;2023-10-19T07:55:31;7.85;;;5.40;;
44985;SDS011;30721;49.380;7.736;2023-10-19T07:57:57;5.68;;;4.35;;
44985;SDS011;30721;49.380;7.736;2023-10-19T08:00:25;6.95;;;4.70;;
44985;SDS011;30721;49.380;7.736;2023-10-19T08:02:51;6.72;;;4.65;;
44985;SDS011;30721;49.380;7.736;2023-10-19T08:05:18;6.70;;;5.00;;
44985;SDS011;30721;49.380;7.736;2023-10-19T08:07:44;6.18;;;4.72;;
44985;SDS011;30721;49.380;7.736;2023-10-19T08:10:12;8.82;;;4.95;;
44985;SDS011;30721;49.380;7.736;2023-10-19T08:12:38;5.63;;;4.20;;
44985;SDS011;30721;49.380;7.736;2023-10-19T08:15:08;6.70;;;4.68;;
44985;SDS011;30721;49.380;7.736;2023-10-19T08:17:36;7.40;;;4.65;;
44985;SDS011;30721;49.380;7.736;2023-10-19T08:20:04;5.25;;;4.40;;
44985;SDS011;30721;49.380;7.736;2023-10-19T08:22:33;4.95;;;4.10;;
44985;SDS011;30721;49.380;7.736;2023-10-19T08:24:59;5.80;;;4.25;;
44985;SDS011;30721;49.380;7.736;2023-10-19T08:27:24;5.43;;;4.35;;
44985;SDS011;30721;49.380;7.736;2023-10-19T08:29:50;5.93;;;4.30;;
44985;SDS011;30721;49.380;7.736;2023-10-19T08:32:15;6.18;;;5.00;;
44985;SDS011;30721;49.380;7.736;2023-10-19T08:34:41;5.97;;;4.50;;
44985;SDS011;30721;49.380;7.736;2023-10-19T08:37:06;6.65;;;4.57;;
44985;SDS011;30721;49.380;7.736;2023-10-19T08:39:32;7.53;;;4.57;;
44985;SDS011;30721;49.380;7.736;2023-10-19T08:42:04;6.20;;;5.22;;
44985;SDS011;30721;49.380;7.736;2023-10-19T08:44:30;8.38;;;4.90;;
44985;SDS011;30721;49.380;7.736;2023-10-19T08:46:56;5.88;;;4.50;;
44985;SDS011;30721;49.380;7.736;2023-10-19T08:49:25;7.45;;;4.70;;
44985;SDS011;30721;49.380;7.736;2023-10-19T08:51:54;5.55;;;4.45;;
44985;SDS011;30721;49.380;7.736;2023-10-19T08:54:20;5.53;;;4.15;;
44985;SDS011;30721;49.380;7.736;2023-10-19T08:56:46;6.38;;;4.30;;
44985;SDS011;30721;49.380;7.736;2023-10-19T08:59:12;5.22;;;4.10;;
44985;SDS011;30721;49.380;7.736;2023-10-19T09:01:40;7.57;;;3.72;;
44985;SDS011;30721;49.380;7.736;2023-10-19T09:04:09;5.22;;;4.72;;
44985;SDS011;30721;49.380;7.736;2023-10-19T09:06:35;4.07;;;3.60;;
44985;SDS011;30721;49.380;7.736;2023-10-19T09:09:10;5.28;;;3.70;;
44985;SDS011;30721;49.380;7.736;2023-10-19T09:11:45;5.03;;;3.55;;
44985;SDS011;30721;49.380;7.736;2023-10-19T09:14:14;5.05;;;3.67;;
44985;SDS011;30721;49.380;7.736;2023-10-19T09:16:55;4.35;;;3.50;;
44985;SDS011;30721;49.380;7.736;2023-10-19T09:19:35;5.82;;;3.88;;
44985;SDS011;30721;49.380;7.736;2023-10-19T09:22:01;6.95;;;4.00;;
44985;SDS011;30721;49.380;7.736;2023-10-19T09:24:32;4.72;;;3.33;;
44985;SDS011;30721;49.380;7.736;2023-10-19T09:27:04;4.32;;;3.38;;
44985;SDS011;30721;49.380;7.736;2023-10-19T09:29:29;4.22;;;3.20;;
44985;SDS011;30721;49.380;7.736;2023-10-19T09:31:57;5.85;;;3.60;;
44985;SDS011;30721;49.380;7.736;2023-10-19T09:34:24;5.55;;;3.45;;
44985;SDS011;30721;49.380;7.736;2023-10-19T09:36:57;3.75;;;3.35;;
44985;SDS011;30721;49.380;7.736;2023-10-19T09:39:26;5.28;;;3.13;;
44985;SDS011;30721;49.380;7.736;2023-10-19T09:41:59;4.55;;;3.10;;
44985;SDS011;30721;49.380;7.736;2023-10-19T09:44:26;4.35;;;3.75;;
44985;SDS011;30721;49.380;7.736;2023-10-19T09:46:56;4.35;;;3.03;;
44985;SDS011;30721;49.380;7.736;2023-10-19T09:49:22;5.13;;;2.95;;
44985;SDS011;30721;49.380;7.736;2023-10-19T09:51:49;3.45;;;2.70;;
44985;SDS011;30721;49.380;7.736;2023-10-19T09:54:29;4.00;;;2.78;;
44985;SDS011;30721;49.380;7.736;2023-10-19T09:57:01;7.63;;;3.40;;
44985;SDS011;30721;49.380;7.736;2023-10-19T09:59:32;3.88;;;2.72;;
44985;SDS011;30721;49.380;7.736;2023-10-19T10:02:09;6.85;;;3.10;;
44985;SDS011;30721;49.380;7.736;2023-10-19T10:04:37;3.95;;;2.75;;
44985;SDS011;30721;49.380;7.736;2023-10-19T10:07:06;4.47;;;3.35;;
44985;SDS011;30721;49.380;7.736;2023-10-19T10:09:34;3.20;;;2.90;;
44985;SDS011;30721;49.380;7.736;2023-10-19T10:12:15;3.10;;;2.58;;
44985;SDS011;30721;49.380;7.736;2023-10-19T10:14:41;3.70;;;2.50;;
44985;SDS011;30721;49.380;7.736;2023-10-19T10:17:18;4.47;;;2.38;;
44985;SDS011;30721;49.380;7.736;2023-10-19T10:19:43;3.00;;;2.10;;
44985;SDS011;30721;49.380;7.736;2023-10-19T10:22:09;2.92;;;2.30;;
44985;SDS011;30721;49.380;7.736;2023-10-19T10:24:44;3.22;;;2.42;;
44985;SDS011;30721;49.380;7.736;2023-10-19T10:27:09;4.68;;;2.30;;
44985;SDS011;30721;49.380;7.736;2023-10-19T10:29:51;3.72;;;2.88;;
44985;SDS011;30721;49.380;7.736;2023-10-19T10:33:04;3.63;;;2.20;;
44985;SDS011;30721;49.380;7.736;2023-10-19T10:38:03;1.90;;;1.80;;
44985;SDS011;30721;49.380;7.736;2023-10-19T10:40:30;2.33;;;1.90;;
44985;SDS011;30721;49.380;7.736;2023-10-19T10:43:06;2.20;;;2.00;;
44985;SDS011;30721;49.380;7.736;2023-10-19T10:45:32;2.20;;;2.00;;
44985;SDS011;30721;49.380;7.736;2023-10-19T10:47:57;1.65;;;1.55;;
44985;SDS011;30721;49.380;7.736;2023-10-19T10:50:22;2.65;;;1.80;;
44985;SDS011;30721;49.380;7.736;2023-10-19T10:52:49;2.80;;;1.80;;
44985;SDS011;30721;49.380;7.736;2023-10-19T10:55:15;2.47;;;1.90;;
44985;SDS011;30721;49.380;7.736;2023-10-19T10:57:41;3.28;;;1.80;;
44985;SDS011;30721;49.380;7.736;2023-10-19T11:00:11;2.13;;;1.70;;
44985;SDS011;30721;49.380;7.736;2023-10-19T11:05:32;2.50;;;1.27;;
44985;SDS011;30721;49.380;7.736;2023-10-19T11:08:14;2.78;;;1.67;;
44985;SDS011;30721;49.380;7.736;2023-10-19T11:10:46;1.83;;;1.30;;
44985;SDS011;30721;49.380;7.736;2023-10-19T11:13:12;3.90;;;1.67;;
44985;SDS011;30721;49.380;7.736;2023-10-19T11:15:39;3.47;;;1.50;;
44985;SDS011;30721;49.380;7.736;2023-10-19T11:18:27;2.55;;;1.50;;
44985;SDS011;30721;49.380;7.736;2023-10-19T11:21:06;1.77;;;1.30;;
44985;SDS011;30721;49.380;7.736;2023-10-19T11:26:04;2.67;;;1.83;;
44985;SDS011;30721;49.380;7.736;2023-10-19T11:28:30;1.70;;;1.52;;
44985;SDS011;30721;49.380;7.736;2023-10-19T11:31:14;1.98;;;1.70;;
44985;SDS011;30721;49.380;7.736;2023-10-19T11:33:41;2.00;;;1.80;;
44985;SDS011;30721;49.380;7.736;2023-10-19T11:36:08;2.50;;;1.95;;
44985;SDS011;30721;49.380;7.736;2023-10-19T11:38:34;3.00;;;1.70;;
44985;SDS011;30721;49.380;7.736;2023-10-19T11:41:00;2.78;;;1.80;;
44985;SDS011;30721;49.380;7.736;2023-10-19T11:43:28;3.17;;;1.92;;
44985;SDS011;30721;49.380;7.736;2023-10-19T11:45:53;2.25;;;2.05;;
44985;SDS011;30721;49.380;7.736;2023-10-19T11:48:19;2.58;;;2.17;;
44985;SDS011;30721;49.380;7.736;2023-10-19T11:50:45;3.08;;;2.30;;
44985;SDS011;30721;49.380;7.736;2023-10-19T11:53:10;2.50;;;1.77;;
44985;SDS011;30721;49.380;7.736;2023-10-19T11:55:35;3.45;;;2.20;;
44985;SDS011;30721;49.380;7.736;2023-10-19T11:58:01;2.15;;;1.95;;
44985;SDS011;30721;49.380;7.736;2023-10-19T12:00:26;3.67;;;2.47;;
44985;SDS011;30721;49.380;7.736;2023-10-19T12:02:58;1.92;;;1.80;;
44985;SDS011;30721;49.380;7.736;2023-10-19T12:05:24;3.13;;;2.05;;
44985;SDS011;30721;49.380;7.736;2023-10-19T12:07:53;2.42;;;1.90;;
44985;SDS011;30721;49.380;7.736;2023-10-19T12:10:18;2.17;;;1.98;;
44985;SDS011;30721;49.380;7.736;2023-10-19T12:12:45;2.75;;;1.90;;
44985;SDS011;30721;49.380;7.736;2023-10-19T12:15:11;3.15;;;1.90;;
44985;SDS011;30721;49.380;7.736;2023-10-19T12:17:37;3.78;;;2.58;;
44985;SDS011;30721;49.380;7.736;2023-10-19T12:20:03;2.10;;;1.88;;
44985;SDS011;30721;49.380;7.736;2023-10-19T12:22:31;2.60;;;2.40;;
44985;SDS011;30721;49.380;7.736;2023-10-19T12:25:01;2.45;;;2.10;;
44985;SDS011;30721;49.380;7.736;2023-10-19T12:27:27;2.85;;;2.20;;
44985;SDS011;30721;49.380;7.736;2023-10-19T12:29:53;3.15;;;2.70;;
44985;SDS011;30721;49.380;7.736;2023-10-19T12:32:19;2.40;;;2.20;;
44985;SDS011;30721;49.380;7.736;2023-10-19T12:34:44;3.30;;;2.75;;
44985;SDS011;30721;49.380;7.736;2023-10-19T12:37:10;2.40;;;2.20;;
44985;SDS011;30721;49.380;7.736;2023-10-19T12:39:37;3.25;;;2.90;;
44985;SDS011;30721;49.380;7.736;2023-10-19T12:42:11;2.70;;;2.50;;
44985;SDS011;30721;49.380;7.736;2023-10-19T12:44:36;3.50;;;2.50;;
44985;SDS011;30721;49.380;7.736;2023-10-19T12:47:08;2.50;;;2.22;;
44985;SDS011;30721;49.380;7.736;2023-10-19T12:49:36;2.70;;;2.50;;
44985;SDS011;30721;49.380;7.736;2023-10-19T12:52:02;2.42;;;2.20;;
44985;SDS011;30721;49.380;7.736;2023-10-19T12:54:29;4.28;;;2.50;;
44985;SDS011;30721;49.380;7.736;2023-10-19T12:56:57;2.70;;;2.10;;
44985;SDS011;30721;49.380;7.736;2023-10-19T12:59:22;3.47;;;2.15;;
44985;SDS011;30721;49.380;7.736;2023-10-19T13:01:48;3.10;;;2.22;;
44985;SDS011;30721;49.380;7.736;2023-10-19T13:04:17;4.32;;;2.20;;
44985;SDS011;30721;49.380;7.736;2023-10-19T13:06:43;2.55;;;2.35;;
44985;SDS011;30721;49.380;7.736;2023-10-19T13:09:09;2.10;;;2.00;;
44985;SDS011;30721;49.380;7.736;2023-10-19T13:11:35;2.70;;;1.67;;
44985;SDS011;30721;49.380;7.736;2023-10-19T13:14:00;3.03;;;2.55;;
44985;SDS011;30721;49.380;7.736;2023-10-19T13:16:26;2.10;;;1.90;;
44985;SDS011;30721;49.380;7.736;2023-10-19T13:18:52;1.85;;;1.75;;
44985;SDS011;30721;49.380;7.736;2023-10-19T13:21:18;2.10;;;2.00;;
44985;SDS011;30721;49.380;7.736;2023-10-19T13:23:47;2.30;;;2.00;;
44985;SDS011;30721;49.380;7.736;2023-10-19T13:26:13;2.03;;;1.92;;
44985;SDS011;30721;49.380;7.736;2023-10-19T13:28:43;1.70;;;1.60;;
44985;SDS011;30721;49.380;7.736;2023-10-19T13:31:09;1.60;;;1.50;;
44985;SDS011;30721;49.380;7.736;2023-10-19T13:33:34;1.65;;;1.50;;
44985;SDS011;30721;49.380;7.736;2023-10-19T13:36:00;1.63;;;1.52;;
44985;SDS011;30721;49.380;7.736;2023-10-19T13:38:25;1.60;;;1.50;;
44985;SDS011;30721;49.380;7.736;2023-10-19T13:40:51;2.38;;;1.60;;
44985;SDS011;30721;49.380;7.736;2023-10-19T13:43:16;1.77;;;1.63;;
44985;SDS011;30721;49.380;7.736;2023-10-19T13:45:44;1.95;;;1.33;;
44985;SDS011;30721;49.380;7.736;2023-10-19T13:48:12;1.60;;;1.50;;
44985;SDS011;30721;49.380;7.736;2023-10-19T13:50:42;1.98;;;1.60;;
44985;SDS011;30721;49.380;7.736;2023-10-19T13:53:11;1.58;;;1.40;;
44985;SDS011;30721;49.380;7.736;2023-10-19T13:55:36;2.70;;;1.50;;
44985;SDS011;30721;49.380;7.736;2023-10-19T13:58:02;1.63;;;1.52;;
44985;SDS011;30721;49.380;7.736;2023-10-19T14:00:27;1.63;;;1.52;;
44985;SDS011;30721;49.380;7.736;2023-10-19T14:03:00;1.85;;;1.67;;
44985;SDS011;30721;49.380;7.736;2023-10-19T14:05:26;1.60;;;1.50;;
44985;SDS011;30721;49.380;7.736;2023-10-19T14:07:53;1.48;;;1.38;;
44985;SDS011;30721;49.380;7.736;2023-10-19T14:10:18;1.85;;;1.42;;
44985;SDS011;30721;49.380;7.736;2023-10-19T14:12:47;2.20;;;1.80;;
44985;SDS011;30721;49.380;7.736;2023-10-19T14:15:18;2.75;;;2.22;;
44985;SDS011;30721;49.380;7.736;2023-10-19T14:17:44;2.88;;;2.03;;
44985;SDS011;30721;49.380;7.736;2023-10-19T14:20:11;2.28;;;2.08;;
44985;SDS011;30721;49.380;7.736;2023-10-19T14:22:41;1.70;;;1.60;;
44985;SDS011;30721;49.380;7.736;2023-10-19T14:25:07;3.20;;;1.95;;
44985;SDS011;30721;49.380;7.736;2023-10-19T14:27:37;2.13;;;1.80;;
44985;SDS011;30721;49.380;7.736;2023-10-19T14:30:04;1.80;;;1.50;;
44985;SDS011;30721;49.380;7.736;2023-10-19T14:32:30;2.75;;;1.63;;
44985;SDS011;30721;49.380;7.736;2023-10-19T14:34:55;2.13;;;1.52;;
44985;SDS011;30721;49.380;7.736;2023-10-19T14:37:20;3.70;;;2.20;;
44985;SDS011;30721;49.380;7.736;2023-10-19T14:39:46;1.90;;;1.40;;
44985;SDS011;30721;49.380;7.736;2023-10-19T14:42:12;1.27;;;1.10;;
44985;SDS011;30721;49.380;7.736;2023-10-19T14:44:37;1.60;;;1.50;;
44985;SDS011;30721;49.380;7.736;2023-10-19T14:47:03;1.42;;;1.33;;
44985;SDS011;30721;49.380;7.736;2023-10-19T14:49:29;1.50;;;1.40;;
44985;SDS011;30721;49.380;7.736;2023-10-19T14:51:55;1.92;;;1.48;;
44985;SDS011;30721;49.380;7.736;2023-10-19T14:54:21;1.88;;;1.30;;
44985;SDS011;30721;49.380;7.736;2023-10-19T14:56:46;1.45;;;1.35;;
44985;SDS011;30721;49.380;7.736;2023-10-19T14:59:12;2.45;;;2.05;;
44985;SDS011;30721;49.380;7.736;2023-10-19T15:01:38;1.50;;;1.40;;
44985;SDS011;30721;49.380;7.736;2023-10-19T15:04:04;1.38;;;1.27;;
44985;SDS011;30721;49.380;7.736;2023-10-19T15:06:30;1.80;;;1.50;;